Time;durP1;ratioP1;P1;durP2;ratioP2;P2;SDS_P1;SDS_P2;PMS_P1;PMS_P2;Temp;Humidity;BMP_temperature;BMP_pressure;BME280_temperature;BME280_humidity;BME280_pressure;Samples;Min_cycle;Max_cycle;Signal;HPM_P1;HPM_P2
2024/03/04 00:01:27;;;;;;;2.35;1.50;;;;;;;4.64;100.00;96705.50;1224785;75;2924402;-68
2024/03/04 00:04:00;;;;;;;2.45;1.65;;;;;;;4.66;100.00;96716.63;1224276;75;2915335;-65
2024/03/04 00:06:33;;;;;;;4.65;2.20;;;;;;;4.21;100.00;96715.59;1224728;75;2913920;-62
2024/03/04 00:09:08;;;;;;;3.75;2.00;;;;;;;4.40;100.00;96718.22;1225503;75;2917621;-66
2024/03/04 00:11:44;;;;;;;3.00;1.80;;;;;;;4.46;100.00;96719.13;1223027;75;2927772;-66
2024/03/04 00:14:17;;;;;;;3.10;1.95;;;;;;;4.45;100.00;96712.22;1225028;75;2915356;-64
2024/03/04 00:16:50;;;;;;;1.90;1.45;;;;;;;4.51;100.00;96715.78;1226111;75;2908599;-62
2024/03/04 00:19:23;;;;;;;3.10;1.60;;;;;;;4.39;100.00;96708.59;1225406;75;2918019;-65
2024/03/04 00:21:56;;;;;;;1.85;1.50;;;;;;;4.27;100.00;96711.03;1224846;75;2914780;-64
2024/03/04 00:24:29;;;;;;;2.85;2.20;;;;;;;4.24;100.00;96708.50;1224535;75;2919571;-66
2024/03/04 00:27:04;;;;;;;2.75;1.60;;;;;;;4.39;100.00;96709.34;1225520;75;2918039;-67
2024/03/04 00:29:37;;;;;;;2.10;1.50;;;;;;;4.29;100.00;96707.88;1225096;75;2918703;-63
2024/03/04 00:32:10;;;;;;;1.40;1.05;;;;;;;4.29;100.00;96710.59;1224487;75;2922042;-63
2024/03/04 00:34:43;;;;;;;3.00;1.65;;;;;;;3.94;100.00;96716.38;1224668;75;2915458;-66
2024/03/04 00:37:16;;;;;;;2.75;1.80;;;;;;;3.99;100.00;96710.38;1225371;75;2918365;-66
2024/03/04 00:39:49;;;;;;;2.05;1.70;;;;;;;4.07;100.00;96702.69;1225102;75;2921439;-62
2024/03/04 00:42:25;;;;;;;2.40;1.75;;;;;;;3.94;100.00;96710.97;1224532;75;2917832;-64
2024/03/04 00:44:58;;;;;;;2.10;1.60;;;;;;;3.86;100.00;96717.91;1224067;75;2911946;-65
2024/03/04 00:47:31;;;;;;;2.50;1.85;;;;;;;3.90;100.00;96704.97;1225631;75;2911432;-66
2024/03/04 00:50:05;;;;;;;1.50;1.25;;;;;;;3.96;100.00;96705.84;1225112;75;2917571;-65
2024/03/04 00:52:37;;;;;;;1.70;1.25;;;;;;;3.88;100.00;96696.56;1224148;75;2920195;-65
2024/03/04 00:55:12;;;;;;;1.65;1.20;;;;;;;3.93;100.00;96692.50;1224722;75;2913533;-65
2024/03/04 00:57:47;;;;;;;1.75;1.20;;;;;;;3.91;100.00;96692.19;1225490;75;2913935;-64
2024/03/04 01:00:21;;;;;;;1.65;1.10;;;;;;;3.85;100.00;96686.66;1224766;75;2917078;-66
2024/03/04 01:02:54;;;;;;;1.70;1.30;;;;;;;3.71;100.00;96692.69;1224506;75;2914257;-64
2024/03/04 01:05:27;;;;;;;2.05;1.35;;;;;;;3.66;100.00;96693.28;1224906;75;2953345;-64
2024/03/04 01:08:00;;;;;;;1.85;1.35;;;;;;;3.44;100.00;96683.38;1225437;75;2914456;-65
2024/03/04 01:10:33;;;;;;;1.90;1.70;;;;;;;3.48;100.00;96683.22;1224826;75;2926925;-65
2024/03/04 01:13:08;;;;;;;2.35;1.60;;;;;;;3.55;100.00;96688.31;1225024;75;2914463;-65
2024/03/04 01:15:42;;;;;;;2.40;1.55;;;;;;;3.42;100.00;96678.41;1225055;75;2914949;-64
2024/03/04 01:18:14;;;;;;;1.95;1.50;;;;;;;3.57;100.00;96681.25;1224994;75;2911569;-64
2024/03/04 01:20:47;;;;;;;2.25;1.35;;;;;;;3.53;100.00;96679.91;1224395;75;2926225;-65
2024/03/04 01:23:20;;;;;;;2.65;1.70;;;;;;;3.62;100.00;96675.22;1224494;75;2919128;-65
2024/03/04 01:25:54;;;;;;;2.80;1.65;;;;;;;3.50;100.00;96680.81;1224654;75;2915160;-63
2024/03/04 01:28:30;;;;;;;2.35;1.65;;;;;;;3.42;100.00;96670.28;1223918;75;2917892;-64
2024/03/04 01:31:03;;;;;;;2.75;1.70;;;;;;;3.19;100.00;96670.88;1224970;75;2929688;-65
2024/03/04 01:33:36;;;;;;;2.60;1.60;;;;;;;3.23;100.00;96671.50;1225220;75;2925223;-64
2024/03/04 01:36:10;;;;;;;2.75;1.90;;;;;;;3.47;100.00;96665.50;1223787;75;2916238;-64
2024/03/04 01:38:44;;;;;;;2.85;1.80;;;;;;;3.24;100.00;96664.13;1224754;75;2933451;-64
2024/03/04 01:41:17;;;;;;;2.10;1.40;;;;;;;3.14;100.00;96672.22;1223911;75;2935466;-63
2024/03/04 01:43:53;;;;;;;2.45;1.60;;;;;;;3.13;100.00;96664.59;1225007;75;2915219;-64
2024/03/04 01:46:26;;;;;;;2.60;1.85;;;;;;;3.07;100.00;96661.72;1224838;75;2926918;-65
2024/03/04 01:48:58;;;;;;;2.15;1.70;;;;;;;2.98;100.00;96656.28;1224475;75;2925551;-65
2024/03/04 01:51:33;;;;;;;3.60;2.00;;;;;;;3.15;100.00;96659.47;1224018;75;2912795;-65
2024/03/04 01:54:07;;;;;;;2.45;1.45;;;;;;;3.16;100.00;96663.69;1224522;75;2922098;-65
2024/03/04 01:56:40;;;;;;;2.25;1.50;;;;;;;3.16;100.00;96669.84;1222943;75;2925924;-65
2024/03/04 01:59:17;;;;;;;1.45;1.25;;;;;;;3.18;100.00;96661.28;1225054;75;2930172;-64
2024/03/04 02:01:50;;;;;;;2.60;1.50;;;;;;;3.15;100.00;96665.63;1223563;75;2926854;-63
2024/03/04 02:04:23;;;;;;;1.90;1.35;;;;;;;3.06;100.00;96665.63;1224249;75;2916362;-63
2024/03/04 02:06:57;;;;;;;2.35;1.40;;;;;;;2.78;100.00;96662.13;1223221;75;2916627;-65
2024/03/04 02:09:32;;;;;;;1.95;1.55;;;;;;;2.93;100.00;96665.00;1224575;75;2913362;-63
2024/03/04 02:12:07;;;;;;;2.20;1.50;;;;;;;2.94;100.00;96672.66;1224470;75;2920954;-65
2024/03/04 02:14:43;;;;;;;2.65;1.25;;;;;;;2.87;100.00;96674.91;1224985;67;2923897;-65
2024/03/04 02:17:16;;;;;;;1.40;1.30;;;;;;;3.03;100.00;96671.94;1224079;75;2922018;-65
2024/03/04 02:19:49;;;;;;;1.55;1.00;;;;;;;3.00;100.00;96686.34;1224853;75;2918257;-65
2024/03/04 02:22:30;;;;;;;1.15;1.00;;;;;;;2.96;100.00;96677.63;1224491;75;2915908;-65
2024/03/04 02:25:03;;;;;;;1.40;1.10;;;;;;;2.96;100.00;96683.78;1224363;75;2938708;-64
2024/03/04 02:27:36;;;;;;;1.70;1.30;;;;;;;2.98;100.00;96684.09;1224542;75;2928674;-64
2024/03/04 02:30:11;;;;;;;1.20;1.00;;;;;;;3.01;100.00;96674.34;1223788;75;2938761;-65
2024/03/04 02:32:44;;;;;;;1.95;1.40;;;;;;;3.01;100.00;96676.28;1224295;75;2917441;-65
2024/03/04 02:35:17;;;;;;;2.20;1.40;;;;;;;2.84;100.00;96673.09;1224478;75;2921545;-65
2024/03/04 02:37:53;;;;;;;1.55;1.30;;;;;;;2.90;100.00;96679.41;1223775;75;2934970;-64
2024/03/04 02:40:26;;;;;;;1.75;1.30;;;;;;;3.03;100.00;96676.56;1223700;75;2914182;-63
2024/03/04 02:43:03;;;;;;;1.60;1.20;;;;;;;2.92;100.00;96672.38;1224386;75;2844413;-64
2024/03/04 02:45:38;;;;;;;1.60;1.30;;;;;;;2.83;100.00;96677.75;1223792;75;2922986;-66
2024/03/04 02:48:11;;;;;;;1.55;1.30;;;;;;;2.95;100.00;96681.53;1224780;75;2932291;-62
2024/03/04 02:50:44;;;;;;;1.35;1.15;;;;;;;2.90;100.00;96682.88;1224671;75;2916658;-64
2024/03/04 02:53:19;;;;;;;3.85;2.20;;;;;;;2.64;100.00;96692.41;1224149;75;2920086;-61
2024/03/04 02:55:52;;;;;;;4.00;2.30;;;;;;;2.47;100.00;96689.22;1224332;75;2925731;-65
2024/03/04 02:58:27;;;;;;;3.65;2.35;;;;;;;2.47;100.00;96692.66;1224819;75;2920998;-65
2024/03/04 03:01:00;;;;;;;1.95;1.60;;;;;;;2.81;100.00;96698.31;1223896;75;2928995;-63
2024/03/04 03:03:33;;;;;;;2.55;1.60;;;;;;;2.82;100.00;96697.13;1224179;75;2948853;-65
2024/03/04 03:06:07;;;;;;;1.75;1.40;;;;;;;2.84;100.00;96702.81;1223998;75;2925604;-63
2024/03/04 03:08:43;;;;;;;1.40;1.20;;;;;;;2.76;100.00;96702.34;1224086;75;2919698;-64
2024/03/04 03:11:16;;;;;;;2.30;1.25;;;;;;;2.77;100.00;96703.88;1223828;75;2918492;-66
2024/03/04 03:13:49;;;;;;;1.45;1.20;;;;;;;2.73;100.00;96700.56;1223882;75;2923898;-65
2024/03/04 03:16:23;;;;;;;1.00;0.90;;;;;;;2.68;100.00;96691.09;1224044;75;2923031;-64
2024/03/04 03:18:57;;;;;;;1.95;1.30;;;;;;;2.71;100.00;96695.59;1192702;75;5541281;-65
2024/03/04 03:21:33;;;;;;;1.35;1.20;;;;;;;2.63;100.00;96691.66;1224284;75;2920952;-64
2024/03/04 03:24:09;;;;;;;1.80;1.20;;;;;;;2.74;100.00;96696.66;1224783;75;2929037;-66
2024/03/04 03:26:42;;;;;;;1.10;1.00;;;;;;;2.71;100.00;96695.59;1224684;75;2923620;-64
2024/03/04 03:29:14;;;;;;;2.25;1.30;;;;;;;2.66;100.00;96700.84;1224833;75;2917393;-66
2024/03/04 03:31:47;;;;;;;1.30;1.20;;;;;;;2.61;100.00;96704.88;1223312;75;2928022;-64
2024/03/04 03:34:20;;;;;;;2.45;1.30;;;;;;;2.52;100.00;96697.47;1224316;75;2930755;-64
2024/03/04 03:36:53;;;;;;;4.15;2.70;;;;;;;2.45;100.00;96692.34;1223328;75;2917780;-66
2024/03/04 03:39:29;;;;;;;4.85;2.95;;;;;;;2.51;100.00;96698.69;1224568;75;2924804;-63
2024/03/04 03:42:04;;;;;;;5.30;3.55;;;;;;;2.61;100.00;96691.38;1224154;75;2924930;-65
2024/03/04 03:44:37;;;;;;;4.45;2.90;;;;;;;2.64;100.00;96689.72;1223923;75;2939112;-65
2024/03/04 03:47:10;;;;;;;3.50;2.40;;;;;;;2.55;100.00;96696.59;1223417;75;2929888;-65
2024/03/04 03:49:43;;;;;;;4.30;2.60;;;;;;;2.31;100.00;96704.47;1224099;75;2922995;-64
2024/03/04 03:52:16;;;;;;;3.05;2.00;;;;;;;2.55;100.00;96693.16;1222861;75;2931605;-62
2024/03/04 03:54:51;;;;;;;2.50;1.85;;;;;;;2.52;100.00;96700.19;1224339;75;2922070;-63
2024/03/04 03:57:24;;;;;;;4.30;2.00;;;;;;;2.58;100.00;96707.72;1224248;75;2922541;-66
2024/03/04 03:59:57;;;;;;;2.70;1.80;;;;;;;2.56;100.00;96703.50;1224719;75;2926439;-64
2024/03/04 04:02:30;;;;;;;3.40;1.80;;;;;;;2.52;100.00;96702.88;1224109;75;2927033;-63
2024/03/04 04:05:03;;;;;;;7.50;3.50;;;;;;;2.41;100.00;96694.44;1224734;75;2918498;-63
2024/03/04 04:07:35;;;;;;;5.20;3.40;;;;;;;2.59;100.00;96699.16;1224021;75;2933581;-62
2024/03/04 04:10:14;;;;;;;3.90;2.55;;;;;;;2.56;100.00;96702.75;1223561;75;2923717;-64
2024/03/04 04:12:47;;;;;;;7.05;4.00;;;;;;;2.46;100.00;96701.22;1224143;75;2928582;-64
2024/03/04 04:15:20;;;;;;;6.10;3.95;;;;;;;2.67;100.00;96703.09;1223792;75;2918719;-64
2024/03/04 04:17:52;;;;;;;5.70;3.75;;;;;;;2.63;100.00;96693.63;1224884;75;2920731;-65
2024/03/04 04:20:26;;;;;;;4.95;2.25;;;;;;;2.72;100.00;96699.81;1224219;75;2921214;-65
2024/03/04 04:22:59;;;;;;;3.75;2.55;;;;;;;2.62;100.00;96702.91;1223417;75;2923676;-66
2024/03/04 04:25:35;;;;;;;2.75;2.05;;;;;;;2.65;100.00;96702.78;1224319;75;2922533;-64
2024/03/04 04:28:10;;;;;;;3.65;2.00;;;;;;;2.62;100.00;96716.41;1224399;75;2920061;-63
2024/03/04 04:30:43;;;;;;;7.00;4.40;;;;;;;2.41;100.00;96724.16;1223523;75;2934496;-66
2024/03/04 04:33:16;;;;;;;4.65;3.60;;;;;;;2.64;100.00;96717.47;1221503;75;2942908;-64
2024/03/04 04:35:49;;;;;;;3.40;2.60;;;;;;;2.76;100.00;96715.88;1223541;75;2927049;-67
2024/03/04 04:38:22;;;;;;;5.00;3.10;;;;;;;2.49;100.00;96719.97;1223908;75;2921351;-63
2024/03/04 04:40:58;;;;;;;3.45;2.60;;;;;;;2.61;100.00;96728.44;1223080;75;2934967;-65
2024/03/04 04:43:31;;;;;;;3.80;2.50;;;;;;;2.41;100.00;96731.53;1224042;67;2928228;-66
2024/03/04 04:46:04;;;;;;;3.55;2.55;;;;;;;2.49;100.00;96724.63;1223922;75;2928563;-64
2024/03/04 04:48:37;;;;;;;2.70;1.90;;;;;;;2.48;100.00;96732.00;1223414;75;2937695;-63
2024/03/04 04:51:10;;;;;;;3.70;2.30;;;;;;;2.46;100.00;96734.38;1222848;75;2946318;-66
2024/03/04 04:53:43;;;;;;;3.50;2.00;;;;;;;2.46;100.00;96742.50;1222640;75;2928583;-64
2024/03/04 04:56:22;;;;;;;4.30;2.10;;;;;;;2.44;100.00;96728.66;1222675;67;2925029;-65
2024/03/04 04:58:55;;;;;;;2.20;2.00;;;;;;;2.38;100.00;96725.03;1223643;75;2928178;-64
2024/03/04 05:01:33;;;;;;;3.35;2.00;;;;;;;2.36;100.00;96732.84;1222960;75;2925903;-64
2024/03/04 05:04:08;;;;;;;2.45;1.70;;;;;;;2.45;100.00;96737.53;1224191;75;2850886;-64
2024/03/04 05:06:41;;;;;;;1.60;1.50;;;;;;;2.39;100.00;96739.31;1223688;75;2926747;-68
2024/03/04 05:09:14;;;;;;;2.40;1.50;;;;;;;2.48;100.00;96744.75;1222627;67;2930498;-63
2024/03/04 05:11:50;;;;;;;3.50;2.00;;;;;;;2.09;100.00;96746.94;1222563;75;2925986;-66
2024/03/04 05:14:23;;;;;;;4.95;3.00;;;;;;;2.11;100.00;96747.25;1224170;75;2885104;-65
2024/03/04 05:16:56;;;;;;;7.45;3.75;;;;;;;1.88;100.00;96751.91;1222845;75;2934665;-64
2024/03/04 05:19:34;;;;;;;4.55;2.90;;;;;;;2.04;100.00;96750.19;1222600;75;2939243;-64
2024/03/04 05:22:09;;;;;;;3.40;2.60;;;;;;;2.26;100.00;96750.94;1222277;75;2927984;-67
2024/03/04 05:24:42;;;;;;;5.15;4.20;;;;;;;2.29;100.00;96749.31;1222675;75;2923082;-65
2024/03/04 05:27:17;;;;;;;9.20;6.30;;;;;;;2.21;100.00;96748.06;1223146;75;2926070;-66
2024/03/04 05:29:50;;;;;;;8.35;5.85;;;;;;;2.22;100.00;96752.28;1222690;75;2920516;-64
2024/03/04 05:32:23;;;;;;;7.50;4.90;;;;;;;2.23;100.00;96754.50;1222425;75;2919387;-62
2024/03/04 05:34:56;;;;;;;7.05;5.20;;;;;;;2.12;100.00;96752.22;1222722;75;2940360;-65
2024/03/04 05:37:29;;;;;;;7.80;6.25;;;;;;;2.10;100.00;96759.25;1222656;75;2917775;-64
2024/03/04 05:40:03;;;;;;;9.35;7.15;;;;;;;2.07;100.00;96760.88;1222856;75;2921572;-64
2024/03/04 05:42:41;;;;;;;7.35;5.70;;;;;;;2.23;100.00;96759.91;1221918;75;2923004;-64
2024/03/04 05:45:14;;;;;;;9.70;6.05;;;;;;;2.27;100.00;96757.09;1223845;75;2931640;-63
2024/03/04 05:47:47;;;;;;;6.60;4.60;;;;;;;2.35;100.00;96755.63;1222245;75;2949490;-63
2024/03/04 05:50:20;;;;;;;4.65;3.55;;;;;;;2.39;100.00;96760.91;1222569;75;2922011;-63
2024/03/04 05:52:53;;;;;;;4.55;3.05;;;;;;;2.39;100.00;96764.38;1220293;75;2963027;-67
2024/03/04 05:55:26;;;;;;;2.00;1.80;;;;;;;2.50;100.00;96753.16;1222301;75;2931747;-63
2024/03/04 05:58:02;;;;;;;3.00;2.20;;;;;;;2.55;100.00;96758.75;1222234;75;2932779;-64
2024/03/04 06:00:35;;;;;;;2.60;1.80;;;;;;;2.58;100.00;96757.09;1223715;75;2930483;-63
2024/03/04 06:03:08;;;;;;;1.85;1.45;;;;;;;2.60;100.00;96756.63;1222154;75;2940144;-66
2024/03/04 06:05:41;;;;;;;2.25;1.70;;;;;;;2.50;100.00;96764.72;1223220;75;2929196;-63
2024/03/04 06:08:14;;;;;;;2.10;1.45;;;;;;;2.68;100.00;96766.75;1222602;75;2928955;-64
2024/03/04 06:10:47;;;;;;;2.00;1.50;;;;;;;2.75;100.00;96766.47;1222910;75;2910489;-65
2024/03/04 06:13:23;;;;;;;1.70;1.60;;;;;;;2.82;100.00;96765.44;1222938;75;2933271;-65
2024/03/04 06:15:56;;;;;;;2.20;1.55;;;;;;;2.84;100.00;96771.16;1222703;75;2933857;-64
2024/03/04 06:18:28;;;;;;;3.05;1.80;;;;;;;2.84;100.00;96767.69;1222531;75;2917793;-65
2024/03/04 06:21:02;;;;;;;9.80;3.55;;;;;;;2.78;100.00;96772.94;1223266;75;2924893;-63
2024/03/04 06:23:35;;;;;;;8.55;4.15;;;;;;;3.05;100.00;96776.91;1223208;75;2929552;-65
2024/03/04 06:26:11;;;;;;;3.90;3.05;;;;;;;3.21;100.00;96782.06;1222844;75;2920030;-65
2024/03/04 06:28:46;;;;;;;4.25;2.80;;;;;;;3.15;100.00;96792.75;1223697;75;2926856;-66
2024/03/04 06:31:19;;;;;;;6.85;3.80;;;;;;;3.13;100.00;96791.69;1221521;75;2927190;-65
2024/03/04 06:33:52;;;;;;;6.10;4.20;;;;;;;3.12;100.00;96795.56;1223336;75;2918706;-64
2024/03/04 06:36:26;;;;;;;6.20;3.80;;;;;;;3.24;100.00;96797.41;1223355;75;2921197;-63
2024/03/04 06:39:01;;;;;;;5.95;3.20;;;;;;;3.36;100.00;96791.13;1223294;75;2922695;-63
2024/03/04 06:41:33;;;;;;;4.45;2.75;;;;;;;3.52;100.00;96797.47;1222866;75;2918803;-62
2024/03/04 06:44:09;;;;;;;7.40;3.60;;;;;;;3.30;100.00;96803.75;1222867;75;2935970;-64
2024/03/04 06:46:42;;;;;;;9.75;6.50;;;;;;;3.26;100.00;96796.97;1223583;75;2920677;-65
2024/03/04 06:49:16;;;;;;;13.10;7.75;;;;;;;3.23;100.00;96806.72;1223882;75;2924739;-66
2024/03/04 06:51:48;;;;;;;13.70;7.60;;;;;;;3.17;100.00;96806.53;1222892;75;2924179;-67
2024/03/04 06:54:21;;;;;;;10.65;7.35;;;;;;;3.47;100.00;96800.78;1223738;75;2923129;-65
2024/03/04 06:56:54;;;;;;;9.45;6.10;;;;;;;3.62;100.00;96797.00;1223587;75;2938541;-64
2024/03/04 06:59:30;;;;;;;7.80;5.15;;;;;;;3.70;100.00;96802.13;1222732;75;2936914;-64
2024/03/04 07:02:02;;;;;;;6.65;5.25;;;;;;;3.82;100.00;96796.59;1221718;75;2922882;-65
2024/03/04 07:04:35;;;;;;;8.00;4.45;;;;;;;3.63;100.00;96809.34;1223520;75;2933412;-66
2024/03/04 07:07:09;;;;;;;6.65;4.30;;;;;;;3.79;100.00;96808.31;1222061;75;2930744;-65
2024/03/04 07:09:42;;;;;;;5.80;4.15;;;;;;;3.81;100.00;96813.28;1220296;75;2976015;-65
2024/03/04 07:12:17;;;;;;;6.50;3.40;;;;;;;3.98;100.00;96817.19;1222472;75;2936640;-66
2024/03/04 07:14:53;;;;;;;6.35;3.35;;;;;;;3.98;100.00;96813.72;1223532;75;2936502;-66
2024/03/04 07:17:25;;;;;;;3.70;2.95;;;;;;;4.36;100.00;96815.19;1223631;75;2924398;-64
2024/03/04 07:19:58;;;;;;;4.20;2.75;;;;;;;4.58;100.00;96818.47;1223022;75;2923270;-65
2024/03/04 07:22:33;;;;;;;3.20;2.50;;;;;;;4.67;100.00;96817.69;1222574;75;2919476;-65
2024/03/04 07:25:07;;;;;;;5.40;3.45;;;;;;;4.78;100.00;96819.91;1223356;75;2923228;-66
2024/03/04 07:27:40;;;;;;;6.45;4.15;;;;;;;4.62;100.00;96819.06;1222647;75;2932942;-65
2024/03/04 07:30:17;;;;;;;8.20;4.05;;;;;;;5.08;100.00;96813.47;1221932;75;2934570;-65
2024/03/04 07:32:50;;;;;;;5.55;3.40;;;;;;;5.07;100.00;96822.06;1221974;75;2923900;-65
2024/03/04 07:35:23;;;;;;;3.35;2.80;;;;;;;5.42;100.00;96833.19;1223180;75;2926393;-66
2024/03/04 07:37:56;;;;;;;5.20;3.10;;;;;;;5.23;100.00;96823.66;1221628;75;2938482;-65
2024/03/04 07:40:29;;;;;;;7.00;4.10;;;;;;;5.26;100.00;96828.16;1222593;75;2924865;-65
2024/03/04 07:43:02;;;;;;;7.10;4.40;;;;;;;5.15;100.00;96830.59;1223021;75;2926073;-66
2024/03/04 07:45:38;;;;;;;5.95;4.25;;;;;;;5.07;100.00;96836.34;1222200;75;2945467;-62
2024/03/04 07:48:11;;;;;;;8.50;4.05;;;;;;;5.31;100.00;96841.81;1223766;75;2921784;-64
2024/03/04 07:50:44;;;;;;;4.50;3.25;;;;;;;5.78;100.00;96842.31;1222946;83;2935099;-66
2024/03/04 07:53:17;;;;;;;4.60;3.15;;;;;;;5.76;100.00;96850.94;1222849;75;2925369;-65
2024/03/04 07:55:50;;;;;;;4.65;3.20;;;;;;;5.75;100.00;96848.69;1223553;75;2926223;-65
2024/03/04 07:58:23;;;;;;;5.45;3.35;;;;;;;5.93;100.00;96855.94;1222969;75;2917473;-66
2024/03/04 08:00:58;;;;;;;4.75;3.00;;;;;;;6.17;100.00;96845.81;1224094;75;2922533;-65
2024/03/04 08:03:31;;;;;;;7.40;4.35;;;;;;;6.02;100.00;96850.50;1223474;75;2935400;-64
2024/03/04 08:06:05;;;;;;;5.60;3.30;;;;;;;6.38;100.00;96849.44;1222655;67;2941489;-65
2024/03/04 08:08:38;;;;;;;3.70;2.55;;;;;;;6.55;100.00;96846.25;1221928;75;2921576;-65
2024/03/04 08:11:11;;;;;;;7.10;3.35;;;;;;;6.27;100.00;96843.78;1222678;75;2920504;-65
2024/03/04 08:13:44;;;;;;;7.05;4.15;;;;;;;6.22;100.00;96854.56;1222448;75;2919263;-65
2024/03/04 08:16:19;;;;;;;7.50;4.30;;;;;;;6.24;100.00;96850.16;1223853;67;2923871;-64
2024/03/04 08:18:52;;;;;;;6.00;3.40;;;;;;;6.63;100.00;96852.81;1224170;75;2922220;-66
2024/03/04 08:21:25;;;;;;;8.30;3.70;;;;;;;6.71;100.00;96853.97;1223106;75;2917310;-64
2024/03/04 08:23:58;;;;;;;4.50;3.00;;;;;;;6.74;100.00;96850.28;1222526;75;2921585;-66
2024/03/04 08:26:30;;;;;;;4.50;3.30;;;;;;;6.98;100.00;96852.16;1223337;75;2922250;-64
2024/03/04 08:29:03;;;;;;;11.25;4.30;;;;;;;6.79;100.00;96855.06;1222860;67;2922184;-65
2024/03/04 08:31:39;;;;;;;6.30;3.80;;;;;;;6.97;100.00;96858.81;1221953;75;2931696;-65
2024/03/04 08:34:12;;;;;;;5.95;3.80;;;;;;;6.98;100.00;96858.34;1223276;75;2928963;-66
2024/03/04 08:36:45;;;;;;;7.30;3.65;;;;;;;6.87;100.00;96865.56;1223898;75;2933481;-65
2024/03/04 08:39:18;;;;;;;7.60;4.20;;;;;;;7.01;100.00;96868.28;1222487;75;2924673;-65
2024/03/04 08:41:51;;;;;;;9.00;4.10;;;;;;;7.02;100.00;96877.19;1223064;75;2919042;-67
2024/03/04 08:44:24;;;;;;;8.65;4.30;;;;;;;6.85;100.00;96868.00;1222242;75;2925104;-64
2024/03/04 08:46:59;;;;;;;5.25;3.55;;;;;;;7.23;100.00;96875.28;1222403;75;2925982;-63
2024/03/04 08:49:32;;;;;;;6.45;3.55;;;;;;;7.24;100.00;96871.38;1223795;75;2938999;-66
2024/03/04 08:52:05;;;;;;;6.35;3.10;;;;;;;7.52;100.00;96877.19;1222955;75;2919732;-66
2024/03/04 08:54:38;;;;;;;6.55;3.05;;;;;;;7.55;100.00;96878.22;1222241;75;2924306;-67
2024/03/04 08:57:13;;;;;;;5.40;3.00;;;;;;;7.66;100.00;96873.69;1223056;75;2926529;-66
2024/03/04 08:59:46;;;;;;;6.65;2.70;;;;;;;7.78;100.00;96873.84;1223749;75;2923094;-67
2024/03/04 09:02:22;;;;;;;6.60;3.20;;;;;;;7.99;99.97;96872.63;1222385;75;2923086;-66
2024/03/04 09:04:55;;;;;;;4.60;3.00;;;;;;;8.15;98.35;96867.84;1223554;75;2918173;-65
2024/03/04 09:07:29;;;;;;;8.75;3.70;;;;;;;7.92;100.00;96861.38;1222524;75;2932453;-65
2024/03/04 09:10:04;;;;;;;6.30;3.70;;;;;;;8.00;100.00;96868.66;1223542;75;2917479;-65
2024/03/04 09:12:37;;;;;;;4.85;3.60;;;;;;;8.34;100.00;96866.31;1221907;75;2958206;-64
2024/03/04 09:15:13;;;;;;;5.70;3.85;;;;;;;8.44;99.19;96872.38;1223155;75;2925264;-66
2024/03/04 09:17:48;;;;;;;4.50;2.70;;;;;;;8.92;93.97;96869.13;1223781;75;2924253;-66
2024/03/04 09:20:21;;;;;;;6.35;3.40;;;;;;;8.82;93.77;96875.97;1222846;75;2921659;-65
2024/03/04 09:22:54;;;;;;;7.90;3.85;;;;;;;8.86;93.13;96874.53;1222536;75;2918621;-64
2024/03/04 09:25:27;;;;;;;6.00;3.30;;;;;;;8.67;89.49;96876.84;1223300;75;2920803;-68
2024/03/04 09:28:00;;;;;;;6.70;3.65;;;;;;;8.95;87.97;96868.91;1221617;75;2925781;-65
2024/03/04 09:30:33;;;;;;;6.10;3.30;;;;;;;9.57;85.32;96865.84;1223828;75;2909791;-64
2024/03/04 09:33:11;;;;;;;5.70;3.00;;;;;;;9.57;84.43;96865.84;1222479;75;2922354;-64
2024/03/04 09:35:44;;;;;;;5.60;3.20;;;;;;;9.68;82.28;96863.19;1198354;75;4968878;-66
2024/03/04 09:38:17;;;;;;;3.70;2.60;;;;;;;9.97;81.63;96870.28;1223363;75;2908691;-67
2024/03/04 09:40:52;;;;;;;4.35;2.45;;;;;;;10.25;79.18;96864.19;1222869;75;2928564;-65
2024/03/04 09:43:31;;;;;;;3.25;2.15;;;;;;;10.59;78.82;96867.78;1222789;75;2931976;-65
2024/03/04 09:46:05;;;;;;;5.90;2.70;;;;;;;10.74;78.44;96867.53;1223916;75;2924583;-68
2024/03/04 09:48:42;;;;;;;6.95;3.55;;;;;;;10.74;80.15;96870.28;1223122;75;2930736;-63
2024/03/04 09:51:16;;;;;;;4.40;2.85;;;;;;;10.94;79.98;96863.81;1223656;75;2916155;-66
2024/03/04 09:53:50;;;;;;;9.50;3.30;;;;;;;10.98;78.06;96875.28;1223831;75;2926104;-63
2024/03/04 09:56:23;;;;;;;6.80;2.80;;;;;;;10.88;74.11;96874.78;1224150;75;2914460;-65
2024/03/04 09:58:56;;;;;;;5.30;2.50;;;;;;;11.30;74.50;96869.53;1223151;75;2919066;-65
2024/03/04 10:01:31;;;;;;;3.55;2.20;;;;;;;11.43;71.88;96866.31;1222212;75;2922302;-67
2024/03/04 10:04:08;;;;;;;5.35;2.80;;;;;;;11.26;72.36;96869.06;1222474;75;2920597;-65
2024/03/04 10:06:41;;;;;;;4.00;2.30;;;;;;;11.94;70.64;96872.44;1222892;75;2922155;-67
2024/03/04 10:09:14;;;;;;;2.85;1.75;;;;;;;12.33;68.98;96863.28;1222631;75;2918905;-67
2024/03/04 10:11:48;;;;;;;3.55;1.75;;;;;;;12.11;68.47;96862.13;1220924;75;3015397;-65
2024/03/04 10:14:21;;;;;;;4.85;2.50;;;;;;;12.32;69.81;96870.78;1222724;75;2937594;-65
2024/03/04 10:16:54;;;;;;;4.05;2.00;;;;;;;12.82;66.84;96863.50;1223822;75;2935408;-65
2024/03/04 10:19:29;;;;;;;2.75;1.90;;;;;;;13.05;66.69;96855.09;1223413;75;2889671;-67
2024/03/04 10:22:02;;;;;;;3.95;2.10;;;;;;;13.49;64.91;96855.97;1223703;75;2919839;-64
2024/03/04 10:24:35;;;;;;;4.50;1.80;;;;;;;14.23;63.43;96856.66;1223661;75;2919004;-66
2024/03/04 10:27:09;;;;;;;7.85;2.05;;;;;;;13.03;63.83;96857.59;1222081;75;2924604;-65
2024/03/04 10:29:41;;;;;;;6.25;1.90;;;;;;;13.53;63.58;96848.94;1224429;75;2919724;-64
2024/03/04 10:32:20;;;;;;;3.25;1.70;;;;;;;14.01;61.88;96844.66;1223081;75;2919757;-63
2024/03/04 10:35:04;;;;;;;4.20;1.50;;;;;;;14.09;61.48;96841.31;1224299;75;2915918;-64
2024/03/04 10:37:37;;;;;;;3.60;1.55;;;;;;;13.91;61.04;96845.53;1222579;75;2919850;-65
2024/03/04 10:40:12;;;;;;;5.15;1.60;;;;;;;13.67;61.53;96840.81;1222263;75;2920539;-65
2024/03/04 10:42:47;;;;;;;3.50;1.50;;;;;;;13.35;61.13;96846.88;1219890;75;2920940;-64
2024/03/04 10:45:20;;;;;;;5.85;2.25;;;;;;;13.61;61.76;96836.13;1224038;75;2906276;-65
2024/03/04 10:47:53;;;;;;;4.50;1.55;;;;;;;13.45;62.28;96833.53;1223887;75;2919123;-66
2024/03/04 10:50:29;;;;;;;3.65;1.40;;;;;;;14.00;61.46;96842.44;1222436;75;2943584;-65
2024/03/04 10:53:02;;;;;;;4.00;1.95;;;;;;;14.13;61.61;96830.78;1224148;75;2923072;-68
2024/03/04 10:55:35;;;;;;;4.85;1.55;;;;;;;13.47;61.44;96831.00;1223489;75;2919534;-65
2024/03/04 10:58:09;;;;;;;4.70;1.70;;;;;;;13.99;60.98;96827.91;1224184;75;2922687;-66
2024/03/04 11:00:43;;;;;;;2.65;1.50;;;;;;;13.98;61.54;96826.44;1223689;75;2924665;-65
2024/03/04 11:03:22;;;;;;;5.75;2.15;;;;;;;14.26;61.26;96828.84;1221836;75;2938299;-66
2024/03/04 11:06:01;;;;;;;3.35;1.55;;;;;;;14.74;60.04;96823.66;1223809;75;2927521;-65
2024/03/04 11:08:40;;;;;;;5.65;1.80;;;;;;;13.72;60.85;96818.75;1223402;75;2919283;-67
2024/03/04 11:11:21;;;;;;;3.60;1.90;;;;;;;14.32;59.88;96826.00;1224378;75;2916967;-65
2024/03/04 11:14:06;;;;;;;3.25;1.95;;;;;;;14.38;60.48;96818.44;1224916;75;2916458;-64
2024/03/04 11:16:46;;;;;;;4.45;2.10;;;;;;;13.72;61.44;96821.50;1223504;75;2937202;-65
2024/03/04 11:19:29;;;;;;;5.30;2.25;;;;;;;14.07;61.94;96823.31;1224573;75;2923167;-67
2024/03/04 11:22:05;;;;;;;2.80;1.50;;;;;;;14.57;59.98;96810.16;1224395;75;2924472;-65
2024/03/04 11:24:38;;;;;;;3.85;1.90;;;;;;;14.43;59.94;96812.09;1223255;75;2920672;-66
2024/03/04 11:27:12;;;;;;;3.20;1.65;;;;;;;14.70;59.86;96809.47;1224119;75;2920767;-64
2024/03/04 11:29:46;;;;;;;5.65;2.10;;;;;;;14.87;58.62;96806.47;1224238;75;2928705;-68
2024/03/04 11:32:29;;;;;;;5.40;2.30;;;;;;;14.41;61.05;96806.34;1223067;75;2922053;-64
2024/03/04 11:35:07;;;;;;;6.75;3.05;;;;;;;14.25;59.87;96810.09;1224330;75;2922122;-66
2024/03/04 11:37:56;;;;;;;9.30;3.70;;;;;;;14.57;59.31;96807.41;1223979;75;2933611;-67
2024/03/04 11:40:29;;;;;;;6.05;2.40;;;;;;;14.81;59.60;96800.28;1223132;67;2916707;-65
2024/03/04 11:43:02;;;;;;;7.75;2.45;;;;;;;14.66;59.89;96804.25;1223207;75;2930214;-65
2024/03/04 11:45:36;;;;;;;4.85;2.15;;;;;;;14.55;60.23;96800.94;1224685;75;2921216;-66
2024/03/04 11:48:31;;;;;;;4.00;1.40;;;;;;;15.17;59.42;96806.19;1224048;75;2923172;-65